Time;durP1;ratioP1;P1;durP2;ratioP2;P2;SDS_P1;SDS_P2;PMS_P1;PMS_P2;Temp;Humidity;BMP_temperature;BMP_pressure;BME280_temperature;BME280_humidity;BME280_pressure;Samples;Min_cycle;Max_cycle;Signal;HPM_P1;HPM_P2
2021/09/18 00:01:49;;;;;;;2.70;2.03;;;;;;;;;;5069481;28;20024;-59
2021/09/18 00:04:15;;;;;;;4.05;2.22;;;;;;;;;;5069663;28;20047;-59
2021/09/18 00:06:40;;;;;;;5.85;2.13;;;;;;;;;;5069021;28;20364;-59
2021/09/18 00:09:06;;;;;;;2.50;1.70;;;;;;;;;;5070021;28;20443;-61
2021/09/18 00:11:31;;;;;;;3.20;2.40;;;;;;;;;;5069799;28;20033;-59
2021/09/18 00:13:57;;;;;;;3.65;2.40;;;;;;;;;;5068945;28;20039;-57
2021/09/18 00:16:22;;;;;;;5.07;2.53;;;;;;;;;;5059884;28;20037;-59
2021/09/18 00:18:48;;;;;;;9.18;3.42;;;;;;;;;;5069841;28;20035;-58
2021/09/18 00:21:13;;;;;;;4.22;2.17;;;;;;;;;;5068077;28;20119;-57
2021/09/18 00:23:39;;;;;;;2.72;2.08;;;;;;;;;;5069120;28;20055;-57
2021/09/18 00:26:04;;;;;;;2.95;2.28;;;;;;;;;;5069509;28;20028;-58
2021/09/18 00:28:30;;;;;;;2.50;1.80;;;;;;;;;;5068869;28;20362;-57
2021/09/18 00:30:55;;;;;;;2.95;1.98;;;;;;;;;;5069420;28;20025;-57
2021/09/18 00:33:21;;;;;;;2.75;1.95;;;;;;;;;;5068833;28;20036;-60
2021/09/18 00:35:46;;;;;;;3.42;2.63;;;;;;;;;;5069802;28;20413;-59
2021/09/18 00:38:13;;;;;;;3.22;2.08;;;;;;;;;;5069403;28;20025;-59
2021/09/18 00:40:39;;;;;;;3.20;2.53;;;;;;;;;;5068276;28;20047;-58
2021/09/18 00:43:05;;;;;;;2.90;2.28;;;;;;;;;;5068888;28;20025;-58
2021/09/18 00:45:30;;;;;;;2.90;2.15;;;;;;;;;;5068606;28;20361;-58
2021/09/18 00:47:56;;;;;;;2.60;1.90;;;;;;;;;;5069584;28;20497;-58
2021/09/18 00:50:21;;;;;;;4.63;2.10;;;;;;;;;;5068779;28;20032;-58
2021/09/18 00:52:48;;;;;;;3.42;2.45;;;;;;;;;;5069193;28;20039;-58
2021/09/18 00:55:15;;;;;;;4.13;2.30;;;;;;;;;;5068262;28;20124;-58
2021/09/18 00:57:41;;;;;;;2.60;2.10;;;;;;;;;;5067184;28;20025;-58
2021/09/18 01:00:09;;;;;;;2.75;1.92;;;;;;;;;;5068913;28;20039;-58
2021/09/18 01:02:35;;;;;;;3.08;2.10;;;;;;;;;;5067156;28;20032;-60
2021/09/18 01:05:01;;;;;;;2.50;1.95;;;;;;;;;;5067957;28;20421;-58
2021/09/18 01:07:27;;;;;;;2.97;2.17;;;;;;;;;;5068108;28;20457;-59
2021/09/18 01:09:53;;;;;;;3.28;2.13;;;;;;;;;;5068991;28;20024;-58
2021/09/18 01:12:18;;;;;;;7.35;2.28;;;;;;;;;;5057188;28;20064;-58
2021/09/18 01:14:45;;;;;;;2.13;1.60;;;;;;;;;;5065687;28;20408;-58
2021/09/18 01:17:11;;;;;;;3.15;2.30;;;;;;;;;;5066129;28;20489;-58
2021/09/18 01:19:36;;;;;;;2.63;2.05;;;;;;;;;;5066582;28;20040;-58
2021/09/18 01:22:03;;;;;;;2.63;1.95;;;;;;;;;;5069115;28;20027;-58
2021/09/18 01:24:28;;;;;;;2.92;2.05;;;;;;;;;;5068735;28;20331;-58
2021/09/18 01:26:54;;;;;;;6.15;2.95;;;;;;;;;;5068930;28;20028;-59
2021/09/18 01:29:19;;;;;;;2.38;1.75;;;;;;;;;;5068189;28;20059;-59
2021/09/18 01:31:47;;;;;;;2.97;2.10;;;;;;;;;;5068773;28;20044;-59
2021/09/18 01:34:21;;;;;;;2.78;1.90;;;;;;;;;;5068694;28;20400;-59
2021/09/18 01:36:47;;;;;;;2.72;2.00;;;;;;;;;;5067964;28;20295;-59
2021/09/18 01:39:14;;;;;;;3.05;1.95;;;;;;;;;;5062632;28;20029;-60
2021/09/18 01:41:41;;;;;;;2.25;1.70;;;;;;;;;;5070253;28;20125;-58
2021/09/18 01:44:07;;;;;;;3.58;2.72;;;;;;;;;;5071070;28;20054;-58
2021/09/18 01:46:33;;;;;;;3.00;2.28;;;;;;;;;;5072103;28;20044;-58
2021/09/18 01:48:58;;;;;;;2.30;1.85;;;;;;;;;;5072423;28;20385;-58
2021/09/18 01:51:24;;;;;;;2.40;1.73;;;;;;;;;;5072152;28;20024;-58
2021/09/18 01:53:49;;;;;;;2.13;1.63;;;;;;;;;;5071597;28;20042;-58
2021/09/18 01:56:15;;;;;;;2.80;2.08;;;;;;;;;;5053167;28;20120;-58
2021/09/18 01:58:40;;;;;;;11.73;2.67;;;;;;;;;;5059086;28;20174;-58
2021/09/18 02:01:06;;;;;;;3.13;1.80;;;;;;;;;;5068720;28;20024;-58
2021/09/18 02:03:33;;;;;;;2.50;1.92;;;;;;;;;;5068277;28;20029;-58
2021/09/18 02:05:59;;;;;;;2.13;1.60;;;;;;;;;;5068252;28;20659;-58
2021/09/18 02:08:25;;;;;;;2.60;1.95;;;;;;;;;;5068813;28;20059;-58
2021/09/18 02:10:53;;;;;;;8.27;2.42;;;;;;;;;;5068936;28;20040;-58
2021/09/18 02:13:19;;;;;;;2.33;1.73;;;;;;;;;;5069467;28;20029;-58
2021/09/18 02:15:44;;;;;;;2.38;1.80;;;;;;;;;;5071162;28;20028;-58
2021/09/18 02:18:10;;;;;;;2.90;2.20;;;;;;;;;;5070523;28;20378;-59
2021/09/18 02:20:37;;;;;;;2.47;1.98;;;;;;;;;;5070134;28;20041;-58
2021/09/18 02:23:03;;;;;;;2.67;2.08;;;;;;;;;;5071415;28;20033;-58
2021/09/18 02:25:29;;;;;;;2.28;1.63;;;;;;;;;;5071359;28;20129;-58
2021/09/18 02:27:55;;;;;;;2.03;1.50;;;;;;;;;;5070223;28;20596;-59
2021/09/18 02:30:24;;;;;;;2.28;1.77;;;;;;;;;;5070281;28;20036;-59
2021/09/18 02:32:51;;;;;;;2.17;1.60;;;;;;;;;;5070960;28;20449;-59
2021/09/18 02:35:18;;;;;;;2.30;1.73;;;;;;;;;;5066560;28;20127;-59
2021/09/18 02:37:44;;;;;;;2.63;1.90;;;;;;;;;;5069527;28;20101;-59
2021/09/18 02:40:12;;;;;;;3.28;2.08;;;;;;;;;;5069566;28;20036;-59
2021/09/18 02:42:39;;;;;;;2.15;1.67;;;;;;;;;;5070474;28;20032;-59
2021/09/18 02:45:06;;;;;;;2.97;1.95;;;;;;;;;;5069687;28;20029;-59
2021/09/18 02:47:32;;;;;;;2.45;1.65;;;;;;;;;;5068222;28;20551;-59
2021/09/18 02:49:57;;;;;;;3.05;2.10;;;;;;;;;;5070159;28;20033;-57
2021/09/18 02:52:23;;;;;;;2.30;1.58;;;;;;;;;;5070803;28;20037;-57
2021/09/18 02:54:48;;;;;;;3.90;2.33;;;;;;;;;;5070215;28;20488;-57
2021/09/18 02:57:13;;;;;;;2.90;1.85;;;;;;;;;;5071038;28;20111;-57
2021/09/18 02:59:39;;;;;;;2.53;1.55;;;;;;;;;;5070572;28;20043;-57
2021/09/18 03:02:04;;;;;;;2.78;1.88;;;;;;;;;;5070983;28;20028;-60
2021/09/18 03:04:31;;;;;;;2.72;2.03;;;;;;;;;;5070131;28;20056;-58
2021/09/18 03:06:56;;;;;;;2.58;1.77;;;;;;;;;;5070905;28;20040;-58
2021/09/18 03:09:21;;;;;;;2.50;1.95;;;;;;;;;;5069532;28;20028;-58
2021/09/18 03:11:47;;;;;;;2.30;1.60;;;;;;;;;;5066103;28;20369;-58
2021/09/18 03:14:12;;;;;;;3.88;1.98;;;;;;;;;;5070865;28;20047;-58
2021/09/18 03:16:38;;;;;;;4.72;2.20;;;;;;;;;;5069781;28;20070;-58
2021/09/18 03:19:03;;;;;;;2.50;1.60;;;;;;;;;;5069837;28;20473;-58
2021/09/18 03:21:29;;;;;;;3.05;1.98;;;;;;;;;;5070175;28;20029;-58
2021/09/18 03:23:54;;;;;;;2.40;1.75;;;;;;;;;;5070354;28;20564;-58
2021/09/18 03:26:19;;;;;;;2.38;1.75;;;;;;;;;;5070579;28;20040;-58
2021/09/18 03:28:45;;;;;;;2.63;1.73;;;;;;;;;;5069448;28;20366;-58
2021/09/18 03:31:10;;;;;;;2.42;1.75;;;;;;;;;;5070127;28;20040;-58
2021/09/18 03:33:36;;;;;;;2.03;1.40;;;;;;;;;;5069748;28;20052;-57
2021/09/18 03:36:01;;;;;;;2.90;2.03;;;;;;;;;;5070434;28;20020;-57
2021/09/18 03:38:26;;;;;;;2.30;1.60;;;;;;;;;;5068102;28;20033;-57
2021/09/18 03:40:52;;;;;;;2.72;1.65;;;;;;;;;;5069797;28;20035;-57
2021/09/18 03:43:17;;;;;;;2.20;1.48;;;;;;;;;;5070030;28;20036;-57
2021/09/18 03:45:43;;;;;;;2.85;1.83;;;;;;;;;;5068272;28;20064;-57
2021/09/18 03:48:08;;;;;;;7.65;2.35;;;;;;;;;;5068873;28;20508;-57
2021/09/18 03:50:33;;;;;;;2.15;1.55;;;;;;;;;;5070025;28;20117;-57
2021/09/18 03:52:59;;;;;;;3.30;2.35;;;;;;;;;;5070114;28;20028;-57
2021/09/18 03:55:25;;;;;;;2.72;1.90;;;;;;;;;;5069629;28;20490;-57
2021/09/18 03:57:50;;;;;;;2.42;1.83;;;;;;;;;;5069491;28;20124;-57
2021/09/18 04:00:15;;;;;;;2.70;1.75;;;;;;;;;;5069774;28;20040;-58
2021/09/18 04:02:41;;;;;;;3.78;1.95;;;;;;;;;;5069015;28;20060;-57
2021/09/18 04:05:07;;;;;;;2.15;1.63;;;;;;;;;;5069102;28;20028;-57
2021/09/18 04:07:32;;;;;;;3.05;1.50;;;;;;;;;;5068595;28;20040;-58
2021/09/18 04:09:57;;;;;;;2.75;1.75;;;;;;;;;;5069552;28;20487;-57
2021/09/18 04:12:23;;;;;;;2.53;1.73;;;;;;;;;;5065976;28;20044;-57
2021/09/18 04:14:48;;;;;;;2.08;1.60;;;;;;;;;;5069318;28;20040;-58
2021/09/18 04:17:14;;;;;;;2.97;2.15;;;;;;;;;;5069716;28;20025;-58
2021/09/18 04:19:39;;;;;;;3.38;2.65;;;;;;;;;;5069192;28;20384;-57
2021/09/18 04:22:05;;;;;;;4.03;2.58;;;;;;;;;;5068970;28;20029;-60
2021/09/18 04:24:30;;;;;;;2.85;2.50;;;;;;;;;;5069943;28;20028;-58
2021/09/18 04:26:56;;;;;;;5.13;2.35;;;;;;;;;;5069261;28;20033;-58
2021/09/18 04:29:21;;;;;;;3.25;1.95;;;;;;;;;;5069128;28;20047;-58
2021/09/18 04:31:46;;;;;;;2.90;1.83;;;;;;;;;;5066121;28;20028;-59
2021/09/18 04:34:12;;;;;;;3.45;2.22;;;;;;;;;;5067801;28;20446;-59
2021/09/18 04:36:37;;;;;;;2.30;1.60;;;;;;;;;;5067877;28;20039;-59
2021/09/18 04:39:03;;;;;;;3.22;2.28;;;;;;;;;;5069336;28;20499;-59
2021/09/18 04:41:29;;;;;;;3.70;2.17;;;;;;;;;;5069403;28;20043;-59
2021/09/18 04:43:55;;;;;;;2.78;2.00;;;;;;;;;;5067700;28;20033;-59
2021/09/18 04:46:21;;;;;;;2.55;2.03;;;;;;;;;;5068781;28;20025;-59
2021/09/18 04:48:46;;;;;;;3.42;2.35;;;;;;;;;;5068675;28;20101;-59
2021/09/18 04:51:12;;;;;;;3.40;2.53;;;;;;;;;;5069271;28;20028;-59
2021/09/18 04:53:37;;;;;;;4.53;2.22;;;;;;;;;;5068151;28;20036;-59
2021/09/18 04:56:03;;;;;;;8.45;2.78;;;;;;;;;;5066024;28;20052;-59
2021/09/18 04:58:30;;;;;;;2.97;2.03;;;;;;;;;;5066031;28;20166;-59
2021/09/18 05:00:56;;;;;;;5.40;2.15;;;;;;;;;;5068409;28;20036;-59
2021/09/18 05:03:21;;;;;;;2.67;1.85;;;;;;;;;;5068999;28;20047;-59
2021/09/18 05:05:47;;;;;;;5.00;2.83;;;;;;;;;;5065665;28;20064;-58
2021/09/18 05:08:13;;;;;;;11.45;2.03;;;;;;;;;;5068645;28;20041;-58
2021/09/18 05:10:38;;;;;;;3.25;2.20;;;;;;;;;;5067208;28;20020;-58
2021/09/18 05:13:04;;;;;;;3.92;2.70;;;;;;;;;;5069714;28;20455;-58
2021/09/18 05:15:29;;;;;;;3.53;2.20;;;;;;;;;;5071410;28;20039;-58
2021/09/18 05:17:55;;;;;;;2.88;1.90;;;;;;;;;;5072678;28;20446;-58
2021/09/18 05:20:21;;;;;;;3.95;2.80;;;;;;;;;;5072349;28;20039;-59
2021/09/18 05:22:46;;;;;;;2.30;1.65;;;;;;;;;;5072917;28;20056;-58
2021/09/18 05:25:11;;;;;;;2.35;1.83;;;;;;;;;;5073072;28;20036;-58
2021/09/18 05:27:37;;;;;;;2.28;1.77;;;;;;;;;;5070978;28;20029;-58
2021/09/18 05:30:07;;;;;;;4.80;2.30;;;;;;;;;;5071481;28;20040;-58
2021/09/18 05:32:32;;;;;;;3.15;2.30;;;;;;;;;;5069499;28;20032;-59
2021/09/18 05:34:58;;;;;;;2.83;2.00;;;;;;;;;;5068894;28;20043;-58
2021/09/18 05:37:23;;;;;;;2.80;1.88;;;;;;;;;;5068671;28;20028;-58
2021/09/18 05:39:48;;;;;;;2.92;1.92;;;;;;;;;;5069275;28;20037;-58
2021/09/18 05:42:15;;;;;;;3.80;2.65;;;;;;;;;;5069731;28;20036;-58
2021/09/18 05:44:40;;;;;;;2.22;1.63;;;;;;;;;;5068793;28;20021;-58
2021/09/18 05:47:06;;;;;;;4.70;2.90;;;;;;;;;;5069911;28;20040;-58
2021/09/18 05:49:31;;;;;;;3.08;1.90;;;;;;;;;;5069044;28;20052;-59
2021/09/18 05:51:57;;;;;;;3.17;1.90;;;;;;;;;;5069738;28;20109;-58
2021/09/18 05:54:23;;;;;;;3.25;2.47;;;;;;;;;;5068057;28;20468;-58
2021/09/18 05:56:48;;;;;;;4.72;2.97;;;;;;;;;;5068318;28;20483;-57
2021/09/18 05:59:13;;;;;;;2.60;2.05;;;;;;;;;;5067625;28;20548;-58
2021/09/18 06:01:39;;;;;;;4.63;2.92;;;;;;;;;;5069883;28;20100;-58
2021/09/18 06:04:04;;;;;;;2.78;2.15;;;;;;;;;;5070449;28;20120;-58
2021/09/18 06:06:30;;;;;;;3.63;2.20;;;;;;;;;;5064968;28;20056;-58
2021/09/18 06:08:55;;;;;;;5.63;2.53;;;;;;;;;;5066532;28;20056;-58
2021/09/18 06:11:20;;;;;;;2.50;1.67;;;;;;;;;;5066590;28;20096;-58
2021/09/18 06:13:46;;;;;;;5.88;2.22;;;;;;;;;;5062997;28;20029;-58
2021/09/18 06:16:11;;;;;;;3.00;2.10;;;;;;;;;;5064720;28;20032;-58
2021/09/18 06:18:37;;;;;;;2.60;1.75;;;;;;;;;;5064328;28;20020;-59
2021/09/18 06:21:04;;;;;;;2.95;2.03;;;;;;;;;;5065307;28;20087;-59
2021/09/18 06:23:30;;;;;;;2.67;1.85;;;;;;;;;;5066746;28;20519;-59
2021/09/18 06:25:55;;;;;;;2.90;2.25;;;;;;;;;;5068239;28;20028;-59
2021/09/18 06:28:21;;;;;;;2.60;2.03;;;;;;;;;;5069668;28;20043;-58
2021/09/18 06:30:46;;;;;;;2.65;2.13;;;;;;;;;;5068971;28;20032;-58
2021/09/18 06:33:12;;;;;;;3.13;2.10;;;;;;;;;;5067608;28;20049;-58
2021/09/18 06:35:37;;;;;;;4.40;2.38;;;;;;;;;;5060575;28;20036;-58
2021/09/18 06:38:03;;;;;;;3.33;2.15;;;;;;;;;;5071175;28;20102;-58
2021/09/18 06:40:28;;;;;;;3.13;2.47;;;;;;;;;;5070933;28;20083;-58
2021/09/18 06:42:54;;;;;;;3.97;2.30;;;;;;;;;;5070112;28;20040;-58
2021/09/18 06:45:19;;;;;;;3.05;2.40;;;;;;;;;;5070510;28;20107;-58
2021/09/18 06:47:45;;;;;;;2.95;2.20;;;;;;;;;;5071155;28;20036;-58
2021/09/18 06:50:11;;;;;;;2.92;2.30;;;;;;;;;;5071346;28;20382;-57
2021/09/18 06:52:36;;;;;;;3.15;2.40;;;;;;;;;;5071269;28;20534;-58
2021/09/18 06:55:02;;;;;;;3.97;2.97;;;;;;;;;;5067025;28;20614;-58
2021/09/18 06:57:28;;;;;;;7.57;3.35;;;;;;;;;;5070118;28;20033;-58
2021/09/18 06:59:53;;;;;;;10.40;4.93;;;;;;;;;;5070378;28;20491;-59
2021/09/18 07:02:19;;;;;;;3.83;2.85;;;;;;;;;;5071429;28;20028;-57
2021/09/18 07:04:44;;;;;;;3.85;3.22;;;;;;;;;;5070070;28;20109;-60
2021/09/18 07:07:09;;;;;;;4.78;3.38;;;;;;;;;;5070923;28;20071;-58
2021/09/18 07:09:35;;;;;;;3.58;2.75;;;;;;;;;;5068760;28;20036;-58
2021/09/18 07:12:00;;;;;;;4.85;3.70;;;;;;;;;;5069419;28;20048;-58
2021/09/18 07:14:26;;;;;;;5.05;3.72;;;;;;;;;;5067801;28;20081;-58
2021/09/18 07:16:51;;;;;;;5.53;3.88;;;;;;;;;;5070146;28;20055;-58
2021/09/18 07:19:17;;;;;;;3.38;2.75;;;;;;;;;;5070502;28;20335;-58
2021/09/18 07:21:42;;;;;;;3.97;2.85;;;;;;;;;;5065311;28;20033;-58
2021/09/18 07:24:08;;;;;;;4.95;3.65;;;;;;;;;;5066558;28;20105;-58
2021/09/18 07:26:35;;;;;;;4.10;3.08;;;;;;;;;;5068533;28;20047;-58
2021/09/18 07:29:01;;;;;;;6.07;4.07;;;;;;;;;;5067169;28;20053;-58
2021/09/18 07:31:26;;;;;;;4.22;3.40;;;;;;;;;;5068740;28;20036;-58
2021/09/18 07:33:52;;;;;;;4.65;3.40;;;;;;;;;;5067135;28;20036;-58
2021/09/18 07:36:18;;;;;;;4.80;3.72;;;;;;;;;;5066696;28;20040;-58
2021/09/18 07:38:43;;;;;;;4.32;3.08;;;;;;;;;;5068449;28;20044;-58
2021/09/18 07:41:09;;;;;;;5.47;4.55;;;;;;;;;;5070540;28;20693;-59
2021/09/18 07:43:34;;;;;;;21.38;4.97;;;;;;;;;;5066835;28;20473;-59
2021/09/18 07:46:02;;;;;;;5.97;4.13;;;;;;;;;;5069030;28;20130;-59
2021/09/18 07:48:28;;;;;;;6.47;3.90;;;;;;;;;;5068729;28;20048;-59
2021/09/18 07:50:54;;;;;;;6.68;4.57;;;;;;;;;;5068452;28;20033;-59
2021/09/18 07:53:20;;;;;;;5.32;4.35;;;;;;;;;;5062460;28;20359;-59
2021/09/18 07:55:45;;;;;;;9.77;5.65;;;;;;;;;;5068625;28;20115;-59
2021/09/18 07:58:11;;;;;;;6.10;4.68;;;;;;;;;;5067243;28;20097;-59
2021/09/18 08:00:37;;;;;;;5.57;3.70;;;;;;;;;;5068349;28;20032;-59
2021/09/18 08:03:02;;;;;;;6.47;4.25;;;;;;;;;;5068921;28;20047;-59
2021/09/18 08:05:28;;;;;;;4.90;3.60;;;;;;;;;;5068987;28;20037;-59
2021/09/18 08:07:53;;;;;;;6.43;4.40;;;;;;;;;;5068131;28;20029;-59
2021/09/18 08:10:18;;;;;;;5.07;4.10;;;;;;;;;;5067262;28;20029;-59
2021/09/18 08:12:48;;;;;;;4.95;4.05;;;;;;;;;;5068181;28;20028;-59
2021/09/18 08:15:17;;;;;;;5.65;3.92;;;;;;;;;;5065864;28;20040;-59
2021/09/18 08:17:44;;;;;;;4.72;3.28;;;;;;;;;;5069328;28;20093;-59
2021/09/18 08:20:10;;;;;;;9.18;4.72;;;;;;;;;;5066635;28;20036;-59
2021/09/18 08:22:37;;;;;;;6.28;4.95;;;;;;;;;;5066532;28;20043;-59
2021/09/18 08:25:04;;;;;;;6.85;4.97;;;;;;;;;;5066833;28;20040;-59
2021/09/18 08:27:30;;;;;;;5.22;4.32;;;;;;;;;;5068716;28;20043;-59
2021/09/18 08:29:55;;;;;;;5.30;3.83;;;;;;;;;;5067411;28;20044;-59
2021/09/18 08:32:20;;;;;;;6.78;4.45;;;;;;;;;;5068531;28;20111;-57
2021/09/18 08:34:46;;;;;;;8.90;4.97;;;;;;;;;;5068097;28;20036;-59
2021/09/18 08:37:11;;;;;;;5.55;4.60;;;;;;;;;;5065306;28;20070;-61
2021/09/18 08:39:38;;;;;;;6.60;4.55;;;;;;;;;;5065934;28;20457;-60
2021/09/18 08:42:05;;;;;;;5.63;4.68;;;;;;;;;;5067720;28;20361;-59
2021/09/18 08:44:31;;;;;;;5.05;3.42;;;;;;;;;;5068267;28;20113;-58
2021/09/18 08:46:59;;;;;;;5.90;4.22;;;;;;;;;;5067734;28;20051;-59
2021/09/18 08:49:26;;;;;;;10.75;6.45;;;;;;;;;;5068361;28;20024;-59
2021/09/18 08:51:52;;;;;;;4.97;4.25;;;;;;;;;;5070885;28;20028;-58
2021/09/18 08:54:17;;;;;;;7.28;5.35;;;;;;;;;;5069992;28;20123;-59
2021/09/18 08:56:43;;;;;;;5.10;4.35;;;;;;;;;;5069488;28;20063;-59
2021/09/18 08:59:08;;;;;;;7.70;5.65;;;;;;;;;;5071464;28;20047;-59
2021/09/18 09:01:34;;;;;;;7.30;5.15;;;;;;;;;;5067468;28;20615;-58
2021/09/18 09:04:02;;;;;;;5.28;4.47;;;;;;;;;;5070782;28;20432;-59
2021/09/18 09:06:47;;;;;;;6.57;5.28;;;;;;;;;;5071090;28;20054;-58
2021/09/18 09:09:13;;;;;;;6.05;4.95;;;;;;;;;;5071679;28;20032;-59
2021/09/18 09:11:48;;;;;;;8.13;4.80;;;;;;;;;;5071197;28;20029;-58
2021/09/18 09:14:14;;;;;;;7.80;6.13;;;;;;;;;;5070076;28;20436;-58
2021/09/18 09:16:57;;;;;;;9.23;6.25;;;;;;;;;;5068201;28;20115;-59
2021/09/18 09:19:23;;;;;;;10.20;5.75;;;;;;;;;;5071037;28;20047;-58
2021/09/18 09:21:53;;;;;;;7.20;5.95;;;;;;;;;;5068014;28;20047;-58
2021/09/18 09:24:21;;;;;;;8.48;6.47;;;;;;;;;;5071273;28;20047;-58
2021/09/18 09:27:08;;;;;;;8.02;5.63;;;;;;;;;;5070867;28;20047;-59
2021/09/18 09:29:47;;;;;;;7.30;5.90;;;;;;;;;;5069971;28;20048;-59
2021/09/18 09:32:31;;;;;;;7.43;5.43;;;;;;;;;;5069912;28;20660;-60
2021/09/18 09:34:59;;;;;;;6.72;5.15;;;;;;;;;;5068779;28;20032;-60
2021/09/18 09:37:25;;;;;;;9.30;6.63;;;;;;;;;;5070211;28;20039;-60
2021/09/18 09:39:53;;;;;;;10.00;7.28;;;;;;;;;;5068952;28;20033;-59
2021/09/18 09:42:26;;;;;;;8.77;7.22;;;;;;;;;;5068880;28;20028;-59
2021/09/18 09:44:53;;;;;;;8.52;5.95;;;;;;;;;;5070610;28;20046;-60
2021/09/18 09:47:23;;;;;;;6.53;5.25;;;;;;;;;;5070893;28;20051;-61
2021/09/18 09:49:53;;;;;;;;;;;;;;;;;;5070760;28;20032;-58
2021/09/18 09:52:40;;;;;;;8.55;6.22;;;;;;;;;;5069598;28;19995;-58
2021/09/18 09:55:09;;;;;;;8.00;6.10;;;;;;;;;;5067967;28;20052;-58
2021/09/18 09:57:34;;;;;;;8.73;6.25;;;;;;;;;;5069537;28;20020;-59
2021/09/18 10:00:04;;;;;;;8.00;5.47;;;;;;;;;;5068236;28;20082;-59
2021/09/18 10:02:30;;;;;;;8.83;7.93;;;;;;;;;;5067932;28;20056;-59
2021/09/18 10:04:55;;;;;;;8.90;7.10;;;;;;;;;;5070196;28;20540;-59
2021/09/18 10:07:22;;;;;;;13.50;6.60;;;;;;;;;;5068834;28;20059;-59
2021/09/18 10:09:47;;;;;;;9.65;6.90;;;;;;;;;;5070017;28;20032;-59
2021/09/18 10:12:14;;;;;;;8.23;6.85;;;;;;;;;;5070095;28;20094;-59
2021/09/18 10:14:48;;;;;;;8.23;6.55;;;;;;;;;;5070118;28;20097;-59
2021/09/18 10:17:15;;;;;;;10.85;7.80;;;;;;;;;;5068585;28;20032;-59
2021/09/18 10:20:05;;;;;;;7.32;5.93;;;;;;;;;;5067833;28;20036;-59
2021/09/18 10:25:25;;;;;;;9.20;7.35;;;;;;;;;;5070211;28;20055;-59
2021/09/18 10:28:21;;;;;;;8.23;5.47;;;;;;;;;;5063656;28;20522;-61
2021/09/18 10:31:10;;;;;;;9.18;6.93;;;;;;;;;;5066839;28;20496;-58
2021/09/18 10:33:39;;;;;;;9.93;7.13;;;;;;;;;;5070231;28;20426;-59
2021/09/18 10:36:15;;;;;;;8.05;5.97;;;;;;;;;;5061975;28;20029;-59
2021/09/18 10:38:50;;;;;;;9.60;7.40;;;;;;;;;;5068573;28;20036;-59
2021/09/18 10:41:19;;;;;;;8.60;7.53;;;;;;;;;;5068631;28;20501;-60
2021/09/18 10:44:00;;;;;;;14.63;7.70;;;;;;;;;;5066174;28;20032;-58
2021/09/18 10:46:41;;;;;;;8.80;7.20;;;;;;;;;;5068879;28;20028;-59
2021/09/18 10:49:32;;;;;;;7.72;6.45;;;;;;;;;;5067478;28;20032;-58
2021/09/18 10:52:16;;;;;;;13.73;8.48;;;;;;;;;;5068418;28;20041;-59
2021/09/18 10:55:08;;;;;;;9.98;6.65;;;;;;;;;;5068288;28;20041;-59
2021/09/18 10:57:41;;;;;;;8.80;7.00;;;;;;;;;;5068810;28;20038;-58
2021/09/18 11:00:15;;;;;;;10.68;7.80;;;;;;;;;;5062713;28;20383;-60
2021/09/18 11:02:42;;;;;;;8.73;6.90;;;;;;;;;;5068223;28;20037;-62
2021/09/18 11:05:27;;;;;;;7.65;6.25;;;;;;;;;;5067870;28;20656;-63
2021/09/18 11:08:01;;;;;;;8.98;7.05;;;;;;;;;;5068698;28;20040;-61
2021/09/18 11:10:27;;;;;;;8.57;7.38;;;;;;;;;;5069230;28;20505;-61
2021/09/18 11:13:07;;;;;;;9.30;6.05;;;;;;;;;;5067887;28;20037;-60
2021/09/18 11:15:40;;;;;;;;;;;;;;;;;;5069652;28;20028;-60
2021/09/18 11:18:29;;;;;;;7.03;6.25;;;;;;;;;;5065537;28;19909;-60
2021/09/18 11:21:12;;;;;;;10.07;6.20;;;;;;;;;;5065210;28;20028;-60
2021/09/18 11:23:50;;;;;;;8.80;6.78;;;;;;;;;;5064346;28;20052;-60
2021/09/18 11:26:40;;;;;;;5.65;5.05;;;;;;;;;;5065407;28;20497;-59
2021/09/18 11:29:28;;;;;;;6.10;5.43;;;;;;;;;;5057487;28;20127;-60
2021/09/18 11:32:10;;;;;;;9.20;6.45;;;;;;;;;;5065333;28;20061;-60
2021/09/18 11:34:40;;;;;;;7.20;6.25;;;;;;;;;;5063372;28;20120;-60
2021/09/18 11:37:08;;;;;;;7.95;6.25;;;;;;;;;;5062958;28;20094;-59
2021/09/18 11:39:45;;;;;;;7.00;5.80;;;;;;;;;;5062414;28;20124;-59
2021/09/18 11:42:20;;;;;;;7.85;6.07;;;;;;;;;;5064690;28;20209;-58
2021/09/18 11:44:48;;;;;;;7.47;6.50;;;;;;;;;;5062201;28;20032;-59
2021/09/18 11:47:20;;;;;;;8.20;6.03;;;;;;;;;;5066822;28;20036;-59
2021/09/18 11:49:45;;;;;;;8.10;6.05;;;;;;;;;;5062313;28;20139;-59
2021/09/18 11:52:10;;;;;;;6.78;6.13;;;;;;;;;;5063773;28;20050;-61
2021/09/18 11:54:36;;;;;;;9.05;7.45;;;;;;;;;;5064524;28;20090;-60
2021/09/18 11:57:18;;;;;;;6.82;5.47;;;;;;;;;;5065254;28;20032;-60
2021/09/18 11:59:45;;;;;;;10.90;6.53;;;;;;;;;;5065461;28;20032;-60
2021/09/18 12:02:10;;;;;;;8.27;6.22;;;;;;;;;;5063776;28;20582;-60
2021/09/18 12:04:47;;;;;;;7.40;5.97;;;;;;;;;;5065999;28;20036;-60
2021/09/18 12:07:13;;;;;;;8.30;6.85;;;;;;;;;;5065651;28;20036;-59
2021/09/18 12:09:40;;;;;;;9.40;6.72;;;;;;;;;;5065006;28;20039;-59
2021/09/18 12:12:06;;;;;;;12.90;6.93;;;;;;;;;;5064908;28;20033;-59
2021/09/18 12:14:36;;;;;;;7.50;6.18;;;;;;;;;;5065987;28;20035;-60
2021/09/18 12:17:17;;;;;;;5.75;5.07;;;;;;;;;;5066266;28;20457;-59
2021/09/18 12:19:44;;;;;;;6.65;5.55;;;;;;;;;;5064649;28;20044;-60
2021/09/18 12:22:11;;;;;;;7.68;6.88;;;;;;;;;;5065650;28;20063;-59
2021/09/18 12:24:38;;;;;;;5.90;5.03;;;;;;;;;;5064431;28;20499;-59
2021/09/18 12:27:22;;;;;;;5.97;5.28;;;;;;;;;;5062864;28;20055;-59
2021/09/18 12:29:56;;;;;;;8.45;7.15;;;;;;;;;;5062148;28;20139;-59
2021/09/18 12:32:21;;;;;;;7.95;5.40;;;;;;;;;;5061311;28;20037;-60
2021/09/18 12:34:47;;;;;;;8.52;6.43;;;;;;;;;;5065913;28;20101;-60
2021/09/18 12:37:14;;;;;;;8.90;6.78;;;;;;;;;;5065466;28;20037;-59
2021/09/18 12:39:41;;;;;;;7.85;6.40;;;;;;;;;;5064818;28;20028;-59
2021/09/18 12:42:06;;;;;;;9.60;6.47;;;;;;;;;;5065467;28;20029;-59
2021/09/18 12:44:37;;;;;;;6.43;5.68;;;;;;;;;;5064108;28;20096;-60
2021/09/18 12:47:03;;;;;;;6.20;5.60;;;;;;;;;;5065658;28;20053;-60
2021/09/18 12:49:33;;;;;;;8.80;6.13;;;;;;;;;;5065264;28;20086;-60
2021/09/18 12:52:02;;;;;;;9.80;7.07;;;;;;;;;;5065514;28;20024;-60
2021/09/18 12:54:27;;;;;;;7.65;6.47;;;;;;;;;;5064217;28;20122;-60
2021/09/18 12:56:53;;;;;;;7.60;5.45;;;;;;;;;;5065738;28;20490;-60
2021/09/18 12:59:23;;;;;;;6.65;5.10;;;;;;;;;;5066205;28;20040;-60
2021/09/18 13:01:57;;;;;;;6.68;5.28;;;;;;;;;;5065414;28;20078;-60
2021/09/18 13:04:28;;;;;;;6.30;5.30;;;;;;;;;;5065382;28;20363;-60
2021/09/18 13:06:59;;;;;;;6.93;6.22;;;;;;;;;;5064598;28;20029;-60
2021/09/18 13:09:54;;;;;;;6.30;4.95;;;;;;;;;;5063793;28;20154;-60
2021/09/18 13:12:20;;;;;;;7.88;5.28;;;;;;;;;;5064142;28;20036;-59
2021/09/18 13:14:55;;;;;;;6.10;4.25;;;;;;;;;;5063780;28;20521;-59
2021/09/18 13:17:24;;;;;;;8.60;6.35;;;;;;;;;;5064991;28;20377;-59
2021/09/18 13:19:51;;;;;;;8.20;5.53;;;;;;;;;;5063619;28;20059;-59
2021/09/18 13:22:19;;;;;;;6.78;4.53;;;;;;;;;;5062380;28;20036;-60
2021/09/18 13:24:47;;;;;;;4.82;4.25;;;;;;;;;;5064337;28;20059;-60
2021/09/18 13:27:13;;;;;;;5.10;4.03;;;;;;;;;;5064250;28;20043;-60
2021/09/18 13:29:39;;;;;;;6.45;5.38;;;;;;;;;;5064585;28;20328;-59
2021/09/18 13:32:05;;;;;;;4.72;4.22;;;;;;;;;;5066637;28;20025;-60
2021/09/18 13:34:30;;;;;;;7.43;4.43;;;;;;;;;;5067992;28;20040;-59
2021/09/18 13:36:56;;;;;;;4.50;3.85;;;;;;;;;;5072198;28;20039;-60
2021/09/18 13:39:22;;;;;;;7.05;4.97;;;;;;;;;;5072003;28;20029;-60
2021/09/18 13:41:47;;;;;;;4.88;4.28;;;;;;;;;;5072464;28;20115;-59
2021/09/18 13:44:13;;;;;;;7.85;6.20;;;;;;;;;;5070937;28;20043;-59
2021/09/18 13:46:39;;;;;;;6.70;4.88;;;;;;;;;;5072024;28;20036;-59
2021/09/18 13:49:04;;;;;;;5.80;4.25;;;;;;;;;;5071489;28;20039;-59
2021/09/18 13:51:30;;;;;;;4.32;3.55;;;;;;;;;;5072100;28;20032;-59
2021/09/18 13:53:56;;;;;;;6.07;4.78;;;;;;;;;;5071209;28;20033;-59
2021/09/18 13:56:21;;;;;;;4.65;3.95;;;;;;;;;;5071951;28;20025;-59
2021/09/18 13:58:46;;;;;;;9.63;4.88;;;;;;;;;;5072044;28;20040;-59
2021/09/18 14:01:13;;;;;;;9.07;5.45;;;;;;;;;;5071555;28;20040;-59
2021/09/18 14:03:39;;;;;;;4.65;4.10;;;;;;;;;;5070633;28;20115;-59
2021/09/18 14:06:05;;;;;;;5.47;4.68;;;;;;;;;;5071835;28;20166;-59
2021/09/18 14:08:30;;;;;;;6.03;5.43;;;;;;;;;;5071977;28;20033;-59
2021/09/18 14:10:57;;;;;;;4.10;3.67;;;;;;;;;;5070572;28;20025;-59
2021/09/18 14:13:22;;;;;;;3.55;3.10;;;;;;;;;;5069571;28;20037;-59
2021/09/18 14:15:49;;;;;;;5.38;4.45;;;;;;;;;;5064429;28;20476;-59
2021/09/18 14:18:15;;;;;;;6.15;4.20;;;;;;;;;;5071230;28;20115;-59
2021/09/18 14:20:44;;;;;;;4.00;3.58;;;;;;;;;;5071161;28;20564;-59
2021/09/18 14:23:10;;;;;;;7.03;3.95;;;;;;;;;;5071185;28;20051;-59
2021/09/18 14:25:35;;;;;;;4.93;4.22;;;;;;;;;;5070831;28;20036;-59
2021/09/18 14:28:01;;;;;;;4.53;4.00;;;;;;;;;;5071017;28;20028;-60
2021/09/18 14:30:26;;;;;;;3.40;2.92;;;;;;;;;;5067676;28;20360;-59
2021/09/18 14:32:52;;;;;;;3.63;3.13;;;;;;;;;;5069392;28;20048;-60
2021/09/18 14:35:18;;;;;;;8.88;4.95;;;;;;;;;;5071340;28;20040;-59
2021/09/18 14:37:43;;;;;;;4.57;3.80;;;;;;;;;;5070024;28;20466;-59
2021/09/18 14:40:11;;;;;;;3.97;3.58;;;;;;;;;;5062996;28;20123;-59
2021/09/18 14:42:36;;;;;;;4.45;4.00;;;;;;;;;;5070827;28;20036;-60
2021/09/18 14:45:03;;;;;;;7.13;3.53;;;;;;;;;;5070258;28;20695;-59
2021/09/18 14:47:29;;;;;;;4.25;3.85;;;;;;;;;;5068124;28;20055;-59
2021/09/18 14:49:54;;;;;;;4.25;3.85;;;;;;;;;;5070999;28;20446;-59